createdAt,value
2023-02-18T00:01:04.889Z,27.08
2023-02-18T00:03:32.401Z,27.42
2023-02-18T00:05:59.798Z,28.42
2023-02-18T00:08:27.112Z,27.48
2023-02-18T00:10:54.753Z,29.73
2023-02-18T00:13:22.119Z,28.70
2023-02-18T00:15:49.604Z,30.95
2023-02-18T00:18:17.029Z,31.25
2023-02-18T00:20:44.498Z,32.13
2023-02-18T00:23:11.846Z,35.72
2023-02-18T00:25:39.232Z,35.53
2023-02-18T00:28:06.600Z,36.13
2023-02-18T00:30:34.037Z,35.45
2023-02-18T00:33:01.718Z,36.75
2023-02-18T00:35:29.099Z,37.63
2023-02-18T00:37:56.531Z,37.45
2023-02-18T00:40:23.986Z,38.50
2023-02-18T00:42:51.415Z,38.45
2023-02-18T00:45:18.720Z,39.33
2023-02-18T00:47:46.129Z,38.28
2023-02-18T00:50:13.522Z,40.83
2023-02-18T00:52:42.916Z,43.13
2023-02-18T00:55:10.314Z,42.28
2023-02-18T00:57:37.681Z,43.55
2023-02-18T01:00:09.446Z,42.88
2023-02-18T01:02:36.900Z,41.92
2023-02-18T01:05:04.536Z,42.10
2023-02-18T01:07:31.893Z,42.13
2023-02-18T01:09:59.367Z,43.28
2023-02-18T01:12:26.716Z,42.80
2023-02-18T01:14:54.233Z,41.95
2023-02-18T01:17:21.574Z,42.97
2023-02-18T01:19:49.031Z,43.58
2023-02-18T01:22:16.421Z,42.00
2023-02-18T01:24:46.199Z,40.97
2023-02-18T01:27:13.727Z,40.28
2023-02-18T01:29:41.073Z,40.10
2023-02-18T01:32:08.575Z,37.55
2023-02-18T01:34:36.040Z,36.85
2023-02-18T01:37:03.386Z,38.15
2023-02-18T01:39:30.983Z,36.72
2023-02-18T01:41:58.296Z,35.58
2023-02-18T01:44:27.713Z,34.97
2023-02-18T01:46:55.547Z,35.95
2023-02-18T01:49:35.649Z,38.13
2023-02-18T01:52:12.823Z,36.88
2023-02-18T01:54:55.955Z,37.35
2023-02-18T02:00:13.815Z,39.08
2023-02-18T02:02:44.937Z,38.60
2023-02-18T02:05:12.821Z,37.42
2023-02-18T02:07:41.466Z,39.53
2023-02-18T02:10:12.329Z,38.67
2023-02-18T02:12:42.739Z,39.42
2023-02-18T02:15:28.675Z,39.35
2023-02-18T02:18:20.375Z,38.63
2023-02-18T02:20:47.700Z,36.22
2023-02-18T02:23:34.282Z,33.92
2023-02-18T02:26:29.399Z,33.30
2023-02-18T02:29:15.650Z,30.92
2023-02-18T02:32:09.058Z,30.58
2023-02-18T02:37:49.289Z,28.17
2023-02-18T02:40:21.690Z,26.67
2023-02-18T02:42:52.068Z,27.75
2023-02-18T02:45:43.955Z,27.88
2023-02-18T02:48:20.386Z,27.30
2023-02-18T02:51:05.356Z,28.10
2023-02-18T02:53:35.561Z,25.35
2023-02-18T02:56:02.971Z,26.63
2023-02-18T02:58:30.627Z,27.70
2023-02-18T03:01:04.144Z,26.33
2023-02-18T03:04:03.864Z,27.00
2023-02-18T03:07:03.677Z,26.52
2023-02-18T03:09:57.106Z,26.02
2023-02-18T03:15:16.538Z,22.58
2023-02-18T03:17:58.758Z,21.52
2023-02-18T03:20:36.049Z,19.40
2023-02-18T03:23:07.843Z,18.13
2023-02-18T03:25:36.210Z,18.63
2023-02-18T03:28:07.768Z,19.55
2023-02-18T03:30:44.370Z,18.00
2023-02-18T03:33:15.032Z,17.70
2023-02-18T03:35:43.589Z,17.15
2023-02-18T03:38:18.922Z,17.60
2023-02-18T03:40:46.801Z,20.58
2023-02-18T03:43:14.552Z,23.35
2023-02-18T03:45:42.008Z,27.02
2023-02-18T03:48:09.480Z,27.25
2023-02-18T03:50:37.063Z,28.85
2023-02-18T03:53:04.451Z,30.48
2023-02-18T03:55:37.375Z,29.55
2023-02-18T04:00:32.059Z,27.38
2023-02-18T04:02:59.537Z,28.35
2023-02-18T04:05:27.119Z,26.48
2023-02-18T04:07:54.767Z,23.67
2023-02-18T04:10:22.908Z,23.17
2023-02-18T04:12:50.393Z,23.40
2023-02-18T04:15:17.854Z,24.52
2023-02-18T04:17:45.345Z,24.63
2023-02-18T04:20:12.902Z,26.10
2023-02-18T04:22:40.321Z,25.05
2023-02-18T04:25:08.141Z,25.77
2023-02-18T04:27:35.683Z,24.58
2023-02-18T04:30:04.287Z,23.92
2023-02-18T04:32:31.774Z,24.15
2023-02-18T04:34:59.121Z,23.70
2023-02-18T04:37:26.505Z,22.58
2023-02-18T04:39:53.915Z,23.63
2023-02-18T04:42:21.287Z,21.05
2023-02-18T04:44:48.627Z,21.63
2023-02-18T04:47:15.988Z,18.90
2023-02-18T04:49:43.828Z,16.23
2023-02-18T04:52:11.166Z,16.27
2023-02-18T04:54:38.465Z,14.85
2023-02-18T04:57:05.999Z,13.25
2023-02-18T04:59:33.443Z,12.68
2023-02-18T05:02:00.799Z,12.15
2023-02-18T05:04:28.442Z,12.63
2023-02-18T05:06:55.942Z,13.40
2023-02-18T05:09:23.772Z,14.75
2023-02-18T05:11:51.703Z,17.08
2023-02-18T05:14:19.613Z,17.50
2023-02-18T05:16:46.997Z,19.73
2023-02-18T05:19:17.229Z,20.73
2023-02-18T05:21:44.861Z,21.00
2023-02-18T05:24:12.568Z,20.65
2023-02-18T05:26:39.917Z,22.23
2023-02-18T05:29:07.280Z,22.70
2023-02-18T05:31:34.663Z,23.42
2023-02-18T05:34:02.078Z,25.02
2023-02-18T05:36:29.404Z,23.80
2023-02-18T05:38:56.779Z,23.20
2023-02-18T05:41:24.165Z,24.15
2023-02-18T05:44:10.294Z,24.92
2023-02-18T05:46:37.707Z,23.02
2023-02-18T05:49:05.032Z,24.67
2023-02-18T05:51:32.601Z,24.38
2023-02-18T05:53:59.988Z,22.60
2023-02-18T05:56:27.360Z,23.05
2023-02-18T05:58:54.651Z,21.00
2023-02-18T06:01:22.183Z,20.65
2023-02-18T06:03:49.558Z,21.77
2023-02-18T06:06:16.982Z,21.25
2023-02-18T06:08:44.323Z,23.15
2023-02-18T06:11:11.619Z,24.35
2023-02-18T06:13:38.992Z,24.88
2023-02-18T06:16:09.073Z,24.55
2023-02-18T06:18:36.564Z,23.33
2023-02-18T06:21:04.216Z,23.00
2023-02-18T06:23:34.083Z,21.17
2023-02-18T06:26:01.899Z,20.13
2023-02-18T06:28:29.244Z,20.20
2023-02-18T06:30:57.108Z,18.20
2023-02-18T06:33:25.070Z,15.55
2023-02-18T06:36:02.154Z,16.42
2023-02-18T06:38:29.778Z,14.77
2023-02-18T06:40:57.122Z,15.32
2023-02-18T06:43:24.881Z,15.65
2023-02-18T06:45:52.938Z,15.70
2023-02-18T06:48:20.906Z,15.85
2023-02-18T06:50:49.897Z,15.95
2023-02-18T06:53:17.758Z,15.85
2023-02-18T06:55:45.693Z,17.20
2023-02-18T06:58:14.032Z,14.95
2023-02-18T07:00:41.635Z,13.55
2023-02-18T07:03:09.100Z,14.15
2023-02-18T07:05:36.547Z,12.13
2023-02-18T07:08:04.012Z,12.52
2023-02-18T07:10:31.477Z,11.43
2023-02-18T07:12:58.894Z,10.75
2023-02-18T07:15:27.913Z,9.23
2023-02-18T07:17:55.971Z,8.88
2023-02-18T07:20:23.937Z,9.20
2023-02-18T07:22:51.543Z,8.48
2023-02-18T07:25:20.934Z,7.75
2023-02-18T07:27:49.444Z,8.27
2023-02-18T07:30:17.107Z,7.13
2023-02-18T07:32:44.629Z,6.65
2023-02-18T07:35:14.709Z,6.30
2023-02-18T07:37:45.920Z,7.32
2023-02-18T07:40:15.531Z,6.20
2023-02-18T07:42:42.886Z,6.45
2023-02-18T07:45:11.612Z,5.90
2023-02-18T07:47:39.010Z,5.50
2023-02-18T07:50:07.708Z,6.20
2023-02-18T07:52:35.101Z,6.03
2023-02-18T07:55:02.412Z,6.25
2023-02-18T07:57:29.832Z,6.28
2023-02-18T07:59:57.168Z,6.03
2023-02-18T08:02:25.663Z,5.82
2023-02-18T08:04:53.141Z,5.68
2023-02-18T08:07:22.276Z,4.90
2023-02-18T08:09:51.192Z,5.65
2023-02-18T08:12:18.658Z,5.20
2023-02-18T08:14:48.917Z,6.53
2023-02-18T08:17:17.724Z,5.85
2023-02-18T08:19:45.168Z,5.50
2023-02-18T08:22:12.508Z,6.22
2023-02-18T08:24:39.989Z,6.60
2023-02-18T08:27:07.383Z,6.32
2023-02-18T08:29:34.840Z,6.05
2023-02-18T08:32:02.248Z,6.50
2023-02-18T08:34:32.353Z,6.85
2023-02-18T08:37:00.200Z,5.57
2023-02-18T08:39:27.490Z,5.50
2023-02-18T08:41:54.957Z,4.78
2023-02-18T08:44:22.341Z,4.63
2023-02-18T08:46:49.898Z,5.00
2023-02-18T08:49:17.676Z,5.00
2023-02-18T08:51:45.013Z,5.07
2023-02-18T08:54:22.853Z,5.78
2023-02-18T08:56:50.281Z,5.63
2023-02-18T08:59:17.669Z,4.43
2023-02-18T09:01:45.110Z,5.82
2023-02-18T09:04:12.627Z,4.75
2023-02-18T09:06:40.139Z,6.28
2023-02-18T09:09:07.597Z,4.63
2023-02-18T09:11:35.322Z,5.28
2023-02-18T09:14:03.057Z,5.57
2023-02-18T09:16:30.520Z,5.05
2023-02-18T09:18:58.888Z,5.70
2023-02-18T09:21:26.968Z,4.65
2023-02-18T09:23:54.534Z,5.20
2023-02-18T09:26:26.352Z,4.65
2023-02-18T09:28:55.662Z,4.97
2023-02-18T09:31:25.747Z,3.75
2023-02-18T09:33:56.460Z,4.25
2023-02-18T09:36:24.150Z,3.83
2023-02-18T09:38:51.809Z,4.40
2023-02-18T09:41:44.431Z,4.22
2023-02-18T09:44:22.127Z,4.43
2023-02-18T09:47:04.822Z,5.07
2023-02-18T09:49:40.638Z,4.72
2023-02-18T09:52:21.402Z,4.85
2023-02-18T09:54:50.174Z,5.35
2023-02-18T09:57:34.035Z,4.65
2023-02-18T10:00:07.301Z,4.50
2023-02-18T10:02:35.147Z,4.25
2023-02-18T10:05:03.584Z,6.07
2023-02-18T10:07:32.888Z,5.60
2023-02-18T10:10:11.650Z,4.38
2023-02-18T10:12:39.109Z,4.40
2023-02-18T10:15:11.919Z,4.85
2023-02-18T10:17:39.451Z,4.35
2023-02-18T10:20:08.466Z,4.72
2023-02-18T10:22:36.148Z,3.97
2023-02-18T10:25:05.341Z,4.93
2023-02-18T10:27:35.759Z,4.95
2023-02-18T10:30:28.966Z,4.57
2023-02-18T10:33:11.008Z,4.07
2023-02-18T10:35:52.050Z,5.18
2023-02-18T10:38:41.137Z,4.50
2023-02-18T10:41:27.308Z,4.40
2023-02-18T10:44:17.632Z,5.15
2023-02-18T10:46:44.942Z,3.78
2023-02-18T10:49:36.451Z,4.85
2023-02-18T10:52:06.169Z,4.90
2023-02-18T10:55:01.675Z,4.70
2023-02-18T10:57:29.030Z,5.07
2023-02-18T11:00:19.711Z,4.97
2023-02-18T11:02:47.741Z,5.13
2023-02-18T11:05:25.894Z,5.28
2023-02-18T11:07:56.869Z,4.78
2023-02-18T11:10:25.549Z,4.93
2023-02-18T11:13:01.266Z,5.32
2023-02-18T11:15:29.967Z,4.47
2023-02-18T11:18:11.966Z,4.75
2023-02-18T11:20:40.102Z,4.63
2023-02-18T11:23:07.548Z,4.40
2023-02-18T11:25:39.837Z,5.05
2023-02-18T11:28:31.302Z,4.57
2023-02-18T11:31:01.550Z,4.60
2023-02-18T11:33:47.894Z,4.85
2023-02-18T11:36:38.785Z,4.78
2023-02-18T11:39:24.529Z,4.80
2023-02-18T11:42:01.023Z,4.88
2023-02-18T11:44:30.608Z,5.38
2023-02-18T11:47:07.563Z,4.80
2023-02-18T11:49:35.835Z,5.60
2023-02-18T11:52:26.404Z,4.93
2023-02-18T11:55:34.079Z,5.25
2023-02-18T11:58:05.401Z,5.10
2023-02-18T12:00:38.783Z,5.40
2023-02-18T12:03:15.600Z,5.25
2023-02-18T12:05:44.213Z,5.18
2023-02-18T12:08:11.856Z,4.90
2023-02-18T12:10:47.158Z,5.57
2023-02-18T12:13:27.588Z,5.50
2023-02-18T12:16:11.752Z,5.13
2023-02-18T12:19:02.453Z,4.70
2023-02-18T12:21:41.807Z,5.13
2023-02-18T12:24:24.285Z,5.38
2023-02-18T12:27:11.285Z,5.32
2023-02-18T12:30:07.117Z,5.32
2023-02-18T12:33:07.943Z,5.35
2023-02-18T12:35:50.663Z,5.38
2023-02-18T12:38:50.313Z,4.78
2023-02-18T12:41:26.811Z,4.63
2023-02-18T12:44:15.123Z,5.82
2023-02-18T12:47:19.893Z,5.35
2023-02-18T12:50:15.330Z,4.57
2023-02-18T12:53:01.634Z,4.78
2023-02-18T12:55:43.942Z,4.38
2023-02-18T12:58:43.636Z,3.83
2023-02-18T13:01:32.527Z,4.70
2023-02-18T13:04:18.663Z,3.90
2023-02-18T13:07:04.588Z,4.82
2023-02-18T13:09:45.911Z,4.80
2023-02-18T13:12:30.788Z,5.15
2023-02-18T13:15:25.052Z,4.55
2023-02-18T13:17:57.375Z,4.90
2023-02-18T13:20:36.774Z,4.63
2023-02-18T13:23:04.851Z,4.68
2023-02-18T13:25:37.793Z,4.68
2023-02-18T13:30:52.423Z,5.10
2023-02-18T13:33:41.433Z,4.78
2023-02-18T13:36:23.713Z,4.95
2023-02-18T13:39:11.475Z,4.67
2023-02-18T13:41:43.224Z,3.97
2023-02-18T13:44:30.557Z,4.50
2023-02-18T13:46:59.126Z,4.60
2023-02-18T13:49:37.884Z,4.78
2023-02-18T13:52:05.645Z,4.90
2023-02-18T13:54:45.118Z,4.85
2023-02-18T13:57:15.241Z,5.53
2023-02-18T13:59:51.345Z,5.00
2023-02-18T14:02:21.827Z,4.13
2023-02-18T14:04:52.816Z,4.70
2023-02-18T14:07:36.196Z,4.22
2023-02-18T14:10:21.059Z,4.80
2023-02-18T14:12:57.878Z,4.90
2023-02-18T14:15:26.430Z,4.97
2023-02-18T14:18:14.462Z,4.72
2023-02-18T14:20:41.772Z,5.18
2023-02-18T14:23:21.127Z,4.55
2023-02-18T14:25:59.073Z,5.57
2023-02-18T14:28:36.164Z,4.38
2023-02-18T14:31:05.828Z,4.50
2023-02-18T14:33:37.119Z,5.20
2023-02-18T14:36:16.185Z,5.40
2023-02-18T14:38:54.607Z,5.22
2023-02-18T14:41:31.096Z,5.25
2023-02-18T14:44:02.854Z,4.70
2023-02-18T14:46:53.331Z,5.28
2023-02-18T14:49:37.441Z,4.90
2023-02-18T14:52:10.254Z,5.93
2023-02-18T14:54:37.819Z,5.57
2023-02-18T14:57:09.148Z,5.20
2023-02-18T14:59:40.968Z,6.15
2023-02-18T15:02:23.389Z,4.55
2023-02-18T15:04:50.806Z,5.30
2023-02-18T15:07:22.352Z,4.90
2023-02-18T15:09:53.791Z,5.25
2023-02-18T15:12:26.752Z,5.72
2023-02-18T15:14:54.950Z,5.38
2023-02-18T15:17:30.051Z,5.20
2023-02-18T15:19:59.386Z,4.82
2023-02-18T15:22:30.056Z,4.95
2023-02-18T15:24:57.733Z,5.72
2023-02-18T15:27:28.546Z,4.97
2023-02-18T15:30:19.281Z,5.30
2023-02-18T15:32:51.937Z,5.22
2023-02-18T15:35:26.104Z,5.53
2023-02-18T15:37:58.220Z,5.03
2023-02-18T15:40:31.057Z,4.68
2023-02-18T15:45:33.912Z,5.47
2023-02-18T15:48:07.706Z,5.47
2023-02-18T15:50:38.205Z,5.65
2023-02-18T15:53:12.969Z,5.47
2023-02-18T15:55:43.085Z,6.35
2023-02-18T15:58:20.696Z,5.45
2023-02-18T16:00:51.190Z,5.97
2023-02-18T16:03:29.400Z,5.78
2023-02-18T16:06:22.647Z,5.72
2023-02-18T16:09:17.397Z,5.72
2023-02-18T16:11:59.687Z,5.15
2023-02-18T16:14:47.358Z,6.78
2023-02-18T16:17:28.818Z,5.10
2023-02-18T16:20:04.860Z,5.55
2023-02-18T16:22:39.099Z,6.32
2023-02-18T16:25:41.144Z,6.35
2023-02-18T16:28:17.576Z,6.03
2023-02-18T16:30:46.126Z,6.40
2023-02-18T16:33:13.480Z,6.15
2023-02-18T16:35:49.441Z,7.15
2023-02-18T16:38:19.693Z,6.20
2023-02-18T16:40:47.098Z,6.15
2023-02-18T16:43:27.505Z,6.53
2023-02-18T16:45:57.803Z,5.95
2023-02-18T16:48:49.450Z,6.90
2023-02-18T16:51:24.448Z,7.78
2023-02-18T16:53:52.263Z,6.85
2023-02-18T16:56:22.484Z,6.53
2023-02-18T16:58:50.928Z,6.78
2023-02-18T17:01:30.605Z,6.85
2023-02-18T17:03:59.622Z,7.90
2023-02-18T17:06:28.058Z,7.68
2023-02-18T17:08:55.661Z,7.93
2023-02-18T17:11:35.105Z,8.70
2023-02-18T17:14:05.056Z,7.82
2023-02-18T17:16:32.905Z,8.65
2023-02-18T17:19:00.216Z,7.40
2023-02-18T17:21:27.741Z,7.90
2023-02-18T17:23:55.200Z,7.75
2023-02-18T17:26:25.398Z,7.93
2023-02-18T17:28:55.695Z,8.32
2023-02-18T17:31:26.581Z,7.80
2023-02-18T17:34:06.768Z,8.10
2023-02-18T17:36:34.456Z,8.05
2023-02-18T17:39:02.857Z,8.93
2023-02-18T17:41:30.420Z,7.85
2023-02-18T17:43:57.823Z,8.77
2023-02-18T17:46:25.157Z,8.25
2023-02-18T17:48:52.607Z,8.88
2023-02-18T17:51:26.389Z,9.75
2023-02-18T17:53:53.829Z,9.93
2023-02-18T17:56:21.624Z,10.50
2023-02-18T17:58:49.272Z,11.05
2023-02-18T18:01:18.708Z,11.30
2023-02-18T18:03:46.751Z,11.68
2023-02-18T18:06:20.920Z,12.75
2023-02-18T18:08:49.297Z,13.35
2023-02-18T18:11:26.045Z,13.95
2023-02-18T18:13:54.154Z,15.23
2023-02-18T18:16:21.954Z,14.52
2023-02-18T18:18:49.424Z,15.00
2023-02-18T18:21:29.590Z,16.08
2023-02-18T18:23:56.933Z,14.73
2023-02-18T18:26:24.608Z,15.95
2023-02-18T18:28:52.016Z,16.67
2023-02-18T18:31:20.095Z,18.35
2023-02-18T18:33:50.496Z,18.50
2023-02-18T18:36:22.083Z,18.30
2023-02-18T18:38:49.479Z,18.98
2023-02-18T18:41:19.661Z,19.13
2023-02-18T18:43:48.828Z,17.88
2023-02-18T18:46:16.141Z,18.23
2023-02-18T18:48:43.509Z,18.25
2023-02-18T18:51:28.928Z,17.35
2023-02-18T18:53:56.370Z,17.65
2023-02-18T18:56:23.912Z,17.77
2023-02-18T18:58:51.882Z,17.83
2023-02-18T19:01:22.725Z,16.58
2023-02-18T19:03:50.223Z,15.63
2023-02-18T19:06:17.968Z,15.73
2023-02-18T19:08:46.564Z,16.15
2023-02-18T19:11:14.779Z,15.25
2023-02-18T19:13:42.694Z,16.52
2023-02-18T19:16:20.637Z,15.50
2023-02-18T19:18:48.424Z,15.35
2023-02-18T19:21:16.780Z,16.58
2023-02-18T19:24:01.478Z,17.35
2023-02-18T19:26:32.577Z,17.10
2023-02-18T19:28:59.927Z,16.75
2023-02-18T19:31:28.311Z,17.20
2023-02-18T19:33:55.807Z,16.38
2023-02-18T19:36:23.197Z,15.88
2023-02-18T19:38:51.490Z,16.23
2023-02-18T19:41:18.870Z,16.00
2023-02-18T19:43:49.610Z,15.90
2023-02-18T19:46:18.638Z,15.90
2023-02-18T19:48:51.040Z,14.88
2023-02-18T19:51:19.054Z,14.98
2023-02-18T19:53:46.485Z,15.38
2023-02-18T19:56:13.885Z,14.55
2023-02-18T19:58:41.277Z,15.93
2023-02-18T20:01:16.341Z,15.85
2023-02-18T20:03:47.067Z,17.23
2023-02-18T20:06:19.144Z,18.73
2023-02-18T20:08:46.775Z,18.53
2023-02-18T20:11:14.201Z,18.35
2023-02-18T20:13:42.160Z,19.63
2023-02-18T20:16:13.323Z,19.95
2023-02-18T20:18:40.760Z,21.17
2023-02-18T20:21:15.093Z,21.58
2023-02-18T20:23:49.812Z,23.08
2023-02-18T20:26:17.450Z,22.17
2023-02-18T20:28:44.752Z,24.55
2023-02-18T20:31:13.442Z,24.40
2023-02-18T20:33:44.821Z,22.35
2023-02-18T20:36:13.718Z,21.10
2023-02-18T20:38:42.403Z,19.23
2023-02-18T20:41:14.311Z,21.02
2023-02-18T20:43:42.406Z,21.70
2023-02-18T20:46:12.551Z,20.98
2023-02-18T20:48:40.260Z,22.50
2023-02-18T20:51:18.882Z,21.80
2023-02-18T20:53:47.432Z,21.48
2023-02-18T20:56:15.095Z,21.20
2023-02-18T20:58:43.732Z,22.38
2023-02-18T21:01:16.325Z,22.63
2023-02-18T21:03:48.205Z,22.88
2023-02-18T21:06:18.193Z,23.88
2023-02-18T21:08:47.198Z,25.52
2023-02-18T21:11:24.675Z,25.52
2023-02-18T21:13:54.086Z,23.73
2023-02-18T21:16:23.037Z,23.95
2023-02-18T21:18:50.821Z,24.85
2023-02-18T21:21:20.593Z,23.48
2023-02-18T21:23:48.539Z,24.40
2023-02-18T21:26:23.343Z,24.70
2023-02-18T21:28:57.910Z,24.88
2023-02-18T21:31:31.104Z,23.67
2023-02-18T21:34:01.506Z,24.08
2023-02-18T21:36:30.418Z,24.35
2023-02-18T21:39:00.308Z,23.42
2023-02-18T21:41:28.570Z,23.90
2023-02-18T21:43:56.812Z,22.83
2023-02-18T21:46:26.842Z,22.88
2023-02-18T21:49:06.705Z,22.63
2023-02-18T21:51:58.032Z,22.38
2023-02-18T21:54:37.416Z,23.25
2023-02-18T21:57:08.548Z,23.33
2023-02-18T21:59:36.725Z,22.90
2023-02-18T22:02:05.001Z,23.10
2023-02-18T22:04:36.766Z,23.27
2023-02-18T22:07:04.431Z,23.02
2023-02-18T22:09:32.058Z,24.17
2023-02-18T22:11:59.532Z,23.05
2023-02-18T22:14:27.304Z,23.20
2023-02-18T22:16:54.747Z,24.23
2023-02-18T22:19:22.162Z,23.15
2023-02-18T22:21:49.618Z,22.13
2023-02-18T22:24:18.889Z,23.00
2023-02-18T22:26:46.831Z,21.48
2023-02-18T22:29:15.465Z,22.10
2023-02-18T22:31:43.369Z,21.80
2023-02-18T22:34:11.443Z,22.95
2023-02-18T22:36:39.172Z,21.95
2023-02-18T22:39:07.505Z,20.58
2023-02-18T22:41:35.592Z,21.55
2023-02-18T22:44:09.099Z,20.63
2023-02-18T22:46:36.962Z,20.70
2023-02-18T22:49:06.087Z,19.50
2023-02-18T22:51:37.798Z,19.38
2023-02-18T22:54:07.212Z,19.15
2023-02-18T22:56:34.832Z,19.38
2023-02-18T22:59:02.224Z,17.83
2023-02-18T23:01:35.036Z,18.65
2023-02-18T23:04:10.775Z,19.50
2023-02-18T23:06:40.278Z,21.60
2023-02-18T23:09:08.911Z,18.65
2023-02-18T23:11:36.329Z,17.38
2023-02-18T23:14:23.210Z,16.42
2023-02-18T23:17:15.135Z,19.15
2023-02-18T23:19:46.701Z,16.33
2023-02-18T23:22:16.120Z,17.35
2023-02-18T23:24:45.139Z,17.52
2023-02-18T23:27:14.361Z,17.17
2023-02-18T23:29:41.935Z,18.40
2023-02-18T23:32:09.720Z,19.42
2023-02-18T23:34:38.194Z,18.17
2023-02-18T23:37:05.865Z,17.67
2023-02-18T23:39:33.275Z,18.92
2023-02-18T23:42:00.819Z,19.63
2023-02-18T23:44:28.757Z,18.67
2023-02-18T23:46:56.991Z,16.75
2023-02-18T23:49:25.929Z,17.00
2023-02-18T23:51:54.978Z,17.50
2023-02-18T23:54:22.900Z,17.58
2023-02-18T23:56:51.529Z,16.60
2023-02-18T23:59:19.053Z,17.65
